Warning: Javascript must be enabled to use all the features on this page!


Page Loading - Please Wait...

Click to hideNews Bulletins

Peak Streamflow for the Nation

USGS 07075000 Middle Fork of Little Red River at Shirley, AR

Van Buren County, Arkansas
Hydrologic Unit Code 11010014
Latitude  35°39'24", Longitude  92°17'34" NAD83
Drainage area 302  square miles
Gage datum 498.64 feet above NAVD88
Output formats
Table
Graph
Tab-separated file
peakfq (watstore) format
Reselect output format
Water
Year
Date Gage
Height
(feet)
Stream-
flow
(cfs)
1935 1935-03-10 27.30 61,0007
1939 1939-04-17 19.50 16,800
1940 1940-04-19 11.40 3,480
1941 1941-01-01 14.22 7,770
1942 1941-10-31 19.95 18,900
1943 1943-05-11 27.15 60,700
1944 1944-04-23 21.28 24,700
1945 1945-03-30 24.60 43,200
1946 1946-02-13 21.45 25,500
1947 1946-12-10 19.58 19,000
1948 1948-01-01 19.47 18,800
1949 1949-01-24 31.00 101,000
1950 1950-01-04 21.73 27,900
1951 1951-02-20 19.73 20,000
1952 1951-11-24 18.62 16,500
1953 1952-11-25 21.26 27,900
1954 1954-05-02 21.13 29,000
1955 1955-03-21 20.25 22,800
1956 1956-02-02 17.95 15,300
1957 1957-08-13 26.03 51,700
1958 1958-05-09 17.89 15,000
1959 1958-11-17 23.42 37,200
1960 1959-11-04 23.57 36,200
1961 1961-05-06 23.45 35,100
1962 1962-02-26 16.31 11,100
1963 1963-03-17 13.10 5,460
1964 1964-03-10 25.01 43,700
1965 1965-09-22 14.56 7,980
1966 1966-02-10 21.80 27,700
1967 1967-05-14 13.97 6,850
1968 1968-03-21 21.24 25,400
1969 1969-01-30 22.07 28,800
1970 1970-04-25 17.96 14,900
1971 1970-10-14 15.48 9,560
1972 1971-12-10 23.47 35,500
1973 1973-04-22 25.70 47,600
1974 1973-12-04 24.18 39,200
1975 1975-03-28 22.85 32,400
1976 1976-06-25 15.61 9,800
1977 1977-03-28 26.23 48,300
1978 1978-05-07 17.27 13,200
1979 1979-03-03 21.16 26,900
1980 1979-12-24 17.99 15,000
1981 1981-03-29 13.25 5,700
1982 1982-01-31 24.71 42,100
1983 1982-12-03 37.53 241,000
1984 1984-05-07 17.99 15,000
1985 1985-03-30 23.24 34,300
1986 1985-11-27 18.48 16,300
1987 1987-02-16 16.50 11,600
1988 1987-12-26 17.07 12,800
1989 1989-02-15 23.16 33,900
1990 1990-04-29 23.48 35,600
1991 1991-04-29 19.82 20,200
1992 1991-11-19 17.91 14,800
1993 1993-01-04 23.58 36,100
1994 1994-02-22 17.45 13,700
1995 1994-11-05 18.99  
1996 1996-09-27 18.51  
1997 1996-11-07 24.20  
1998 1998-01-05 20.13  
1999 1998-10-06 22.91  
2000 2000-05-27 16.44  
2001 2001-02-16 18.15 15,400
2002 2001-12-17 22.03 30,700
2003 2003-05-16 18.11 19,100
2004 2004-04-23 22.03 36,200
2005 2005-01-04 20.23 27,500
2006 2006-04-30 16.78 14,700
2007 2006-12-01 22.52 38,800
2008 2008-04-10 28.26 63,400
2009 2009-09-16 18.62 19,900
2010 2009-10-30 21.42 30,600
2011 2011-04-26 23.78 41,700
2012 2012-03-21 24.46 45,200
2013 2013-05-31 26.20 55,100
2014 2014-04-28 21.03 28,900
2015 2015-05-11 23.74 41,400
2016 2015-12-28 25.19 49,200
2017 2017-05-20 18.22 19,400
2018 2018-02-21 19.49 23,300
2019 2019-02-11 19.77 24,200
2020 2020-05-17 20.92 28,200
2021 2021-04-29 21.08  
2022 2022-01-01 16.52 13,400R
?
  Peak Streamflow Qualification Codes.